Time;durP1;ratioP1;P1;durP2;ratioP2;P2;SDS_P1;SDS_P2;PMS_P1;PMS_P2;Temp;Humidity;BMP_temperature;BMP_pressure;BME280_temperature;BME280_humidity;BME280_pressure;Samples;Min_cycle;Max_cycle;Signal;HPM_P1;HPM_P2
2022/01/20 00:02:06;;;;;;;2.45;1.50;;;7.20;47.80;;;;;;5073392;28;20153;-50
2022/01/20 00:25:54;;;;;;;2.73;1.73;;;7.10;48.70;;;;;;5077454;28;20211;-50
2022/01/20 00:28:37;;;;;;;3.00;1.58;;;7.10;49.10;;;;;;5077125;28;20446;-49
2022/01/20 00:31:13;;;;;;;2.28;0.95;;;7.10;50.10;;;;;;5077276;28;20153;-49
2022/01/20 00:33:52;;;;;;;5.03;1.33;;;7.10;50.40;;;;;;5077014;28;20665;-50
2022/01/20 00:39:05;;;;;;;1.50;0.85;;;6.90;51.10;;;;;;5077205;28;20153;-50
2022/01/20 00:41:31;;;;;;;2.30;0.80;;;6.90;51.00;;;;;;5076792;28;20637;-50
2022/01/20 00:43:56;;;;;;;3.05;1.00;;;6.90;50.80;;;;;;5072341;28;20180;-50
2022/01/20 00:46:22;;;;;;;2.60;1.10;;;6.90;50.90;;;;;;5056723;28;20177;-49
2022/01/20 00:48:48;;;;;;;1.67;0.77;;;6.80;51.20;;;;;;5056614;28;20198;-49
2022/01/20 00:51:14;;;;;;;4.70;1.30;;;6.90;51.50;;;;;;5056658;28;20176;-50
2022/01/20 00:53:44;;;;;;;3.47;1.45;;;6.90;51.30;;;;;;5056701;28;20431;-50
2022/01/20 00:56:13;;;;;;;1.00;0.38;;;6.80;51.70;;;;;;5057129;28;20226;-49
2022/01/20 00:58:39;;;;;;;2.10;1.05;;;6.80;51.60;;;;;;5056594;28;20161;-49
2022/01/20 01:01:06;;;;;;;1.20;0.85;;;6.70;51.80;;;;;;5056527;28;20184;-49
2022/01/20 01:03:32;;;;;;;2.50;0.98;;;6.90;51.70;;;;;;5055146;28;20514;-50
2022/01/20 01:08:42;;;;;;;1.80;0.70;;;6.90;51.60;;;;;;5056313;28;20201;-49
2022/01/20 01:11:08;;;;;;;1.70;1.57;;;7.10;50.90;;;;;;5056325;28;20196;-50
2022/01/20 01:13:34;;;;;;;2.28;0.95;;;7.20;50.40;;;;;;5075024;28;20187;-50
2022/01/20 01:16:00;;;;;;;1.83;0.80;;;7.30;50.10;;;;;;5076249;28;20735;-50
2022/01/20 01:23:54;;;;;;;2.03;1.27;;;7.20;50.70;;;;;;5076142;28;20164;-50
2022/01/20 01:26:22;;;;;;;1.10;0.60;;;7.00;51.30;;;;;;5076428;28;20180;-50
2022/01/20 01:28:50;;;;;;;1.10;0.32;;;7.10;51.10;;;;;;5075935;28;20180;-50
2022/01/20 01:34:21;;;;;;;1.63;0.70;;;7.30;50.40;;;;;;5076159;28;20169;-50
2022/01/20 01:39:21;;;;;;;1.50;0.73;;;7.50;49.80;;;;;;5076143;28;20156;-50
2022/01/20 01:41:47;;;;;;;4.30;1.17;;;7.50;50.10;;;;;;5075765;28;20260;-50
2022/01/20 01:44:21;;;;;;;1.95;0.95;;;7.40;50.30;;;;;;5075618;28;20177;-50
2022/01/20 01:46:48;;;;;;;2.50;0.80;;;7.30;50.50;;;;;;5074625;28;20536;-50
2022/01/20 01:49:14;;;;;;;1.92;1.00;;;7.20;50.70;;;;;;5075588;28;20176;-50
2022/01/20 01:51:39;;;;;;;2.50;1.63;;;7.20;50.50;;;;;;5075833;28;20204;-50
2022/01/20 01:54:05;;;;;;;1.67;0.70;;;7.30;50.50;;;;;;5075542;28;20196;-50
2022/01/20 01:56:31;;;;;;;1.30;0.63;;;7.30;50.40;;;;;;5075487;28;20206;-50
2022/01/20 01:58:57;;;;;;;1.65;0.70;;;7.30;50.30;;;;;;5075480;28;20524;-50
2022/01/20 02:01:25;;;;;;;2.17;1.00;;;7.40;49.70;;;;;;5075574;28;20180;-50
2022/01/20 02:03:59;;;;;;;1.58;0.70;;;7.40;49.10;;;;;;5075459;28;20255;-50
2022/01/20 02:06:50;;;;;;;1.90;0.80;;;7.60;48.90;;;;;;5075597;28;20173;-50
2022/01/20 02:19:58;;;;;;;1.65;0.63;;;7.60;47.50;;;;;;5075080;28;20670;-50
2022/01/20 02:22:24;;;;;;;7.93;1.40;;;7.70;47.50;;;;;;5075191;28;20145;-50
2022/01/20 02:24:50;;;;;;;6.32;1.20;;;7.80;46.90;;;;;;5074939;28;20256;-50
2022/01/20 02:27:16;;;;;;;1.63;0.77;;;7.90;46.30;;;;;;5074771;28;20279;-50
2022/01/20 02:29:43;;;;;;;1.40;0.60;;;7.80;46.50;;;;;;5074883;28;20450;-50
2022/01/20 02:32:10;;;;;;;1.30;0.82;;;7.70;46.50;;;;;;5074962;28;20767;-50
2022/01/20 02:34:36;;;;;;;2.17;0.70;;;7.80;46.30;;;;;;5075109;28;20203;-50
2022/01/20 02:37:06;;;;;;;1.30;0.40;;;7.70;46.30;;;;;;5074160;28;20200;-50
2022/01/20 02:44:56;;;;;;;1.10;0.50;;;7.70;45.20;;;;;;5074894;28;20259;-50
2022/01/20 02:47:24;;;;;;;1.65;0.75;;;7.80;45.00;;;;;;5074528;28;20189;-50
2022/01/20 02:49:51;;;;;;;1.73;0.85;;;7.90;44.90;;;;;;5074413;28;20243;-50
2022/01/20 02:52:17;;;;;;;1.30;0.77;;;8.00;43.90;;;;;;5074469;28;20171;-50
2022/01/20 02:54:43;;;;;;;4.10;1.27;;;7.80;44.20;;;;;;5074332;28;20161;-50
2022/01/20 02:57:09;;;;;;;1.70;0.52;;;7.80;44.10;;;;;;5074229;28;20403;-50
2022/01/20 02:59:35;;;;;;;1.00;0.38;;;7.90;43.80;;;;;;5074291;28;20226;-50
2022/01/20 03:02:03;;;;;;;1.80;1.15;;;8.00;43.70;;;;;;5074155;28;20168;-50
2022/01/20 03:04:30;;;;;;;1.52;0.60;;;8.00;43.20;;;;;;5074180;28;20192;-50
2022/01/20 03:06:57;;;;;;;1.77;0.45;;;7.90;42.90;;;;;;5073987;28;20172;-50
2022/01/20 03:09:22;;;;;;;20.08;0.70;;;7.80;42.80;;;;;;5074006;28;20180;-50
2022/01/20 03:11:49;;;;;;;1.30;0.50;;;7.70;43.10;;;;;;5074031;28;20165;-50
2022/01/20 03:14:17;;;;;;;8.55;0.93;;;7.60;42.90;;;;;;5072812;28;20412;-50
2022/01/20 03:16:47;;;;;;;1.02;0.38;;;7.50;43.40;;;;;;5074159;28;20540;-50
2022/01/20 03:19:13;;;;;;;2.15;0.50;;;7.50;43.90;;;;;;5073893;28;20218;-50
2022/01/20 03:21:40;;;;;;;1.40;0.43;;;7.50;43.60;;;;;;5073648;28;20224;-50
2022/01/20 03:24:09;;;;;;;1.00;0.30;;;7.40;43.60;;;;;;5074091;28;20544;-50
2022/01/20 03:26:35;;;;;;;1.00;0.30;;;7.40;43.40;;;;;;5073676;28;20161;-50
2022/01/20 03:29:03;;;;;;;4.97;0.80;;;7.40;43.60;;;;;;5073638;28;20192;-50
2022/01/20 03:31:30;;;;;;;1.40;0.60;;;7.40;43.40;;;;;;5073749;28;20165;-50
2022/01/20 03:33:57;;;;;;;1.10;0.30;;;7.40;43.00;;;;;;5073657;28;20184;-50
2022/01/20 03:36:23;;;;;;;1.00;0.30;;;7.50;42.80;;;;;;5073648;28;20183;-50
2022/01/20 03:38:49;;;;;;;1.63;0.75;;;7.40;42.50;;;;;;5073585;28;20224;-50
2022/01/20 03:41:15;;;;;;;2.88;0.82;;;7.40;42.20;;;;;;5073609;28;20719;-50
2022/01/20 03:43:41;;;;;;;1.20;0.50;;;7.40;42.60;;;;;;5073571;28;20200;-50
2022/01/20 03:46:12;;;;;;;1.00;0.30;;;7.40;42.00;;;;;;5073589;28;20232;-50
2022/01/20 03:48:50;;;;;;;1.10;0.40;;;7.30;41.90;;;;;;5072722;28;20586;-50
2022/01/20 03:51:21;;;;;;;1.00;0.30;;;7.30;41.40;;;;;;5073816;28;20629;-50
2022/01/20 03:53:51;;;;;;;1.83;0.47;;;7.30;41.50;;;;;;5073499;28;20165;-50
2022/01/20 03:56:19;;;;;;;1.30;0.60;;;7.20;41.30;;;;;;5073646;28;20148;-50
2022/01/20 03:58:45;;;;;;;1.10;0.30;;;7.20;40.90;;;;;;5073516;28;20247;-50
2022/01/20 04:01:12;;;;;;;3.65;1.60;;;7.10;41.20;;;;;;5073877;28;20536;-50
2022/01/20 04:03:37;;;;;;;1.00;0.30;;;7.00;40.90;;;;;;5072126;28;20176;-50
2022/01/20 04:06:04;;;;;;;1.00;0.30;;;7.00;40.60;;;;;;5073361;28;20555;-50
2022/01/20 04:08:38;;;;;;;1.00;0.40;;;6.90;40.90;;;;;;5073267;28;20267;-50
2022/01/20 04:11:10;;;;;;;1.00;0.40;;;7.00;40.80;;;;;;5073370;28;20171;-50
2022/01/20 04:13:36;;;;;;;1.95;0.60;;;6.90;40.90;;;;;;5073413;28;20157;-50
2022/01/20 04:16:14;;;;;;;1.20;0.57;;;7.00;40.70;;;;;;5071946;28;20169;-50
2022/01/20 04:18:41;;;;;;;1.10;0.70;;;7.00;40.70;;;;;;5073482;28;20193;-50
2022/01/20 04:21:07;;;;;;;1.00;0.35;;;7.10;40.70;;;;;;5072969;28;20696;-50
2022/01/20 04:23:33;;;;;;;1.00;0.33;;;7.10;40.50;;;;;;5071931;28;20195;-50
2022/01/20 04:25:58;;;;;;;1.33;0.77;;;7.10;40.50;;;;;;5073164;28;20251;-50
2022/01/20 04:28:24;;;;;;;3.00;0.50;;;7.10;40.60;;;;;;5073150;28;20667;-50
2022/01/20 04:30:50;;;;;;;1.47;0.63;;;6.90;40.80;;;;;;5073083;28;20169;-50
2022/01/20 04:33:15;;;;;;;1.10;0.53;;;6.90;41.30;;;;;;5073058;28;20169;-50
2022/01/20 04:35:41;;;;;;;1.20;0.43;;;6.90;41.00;;;;;;5071742;28;20419;-50
2022/01/20 04:38:07;;;;;;;1.00;0.37;;;6.90;41.30;;;;;;5073162;28;20168;-50
2022/01/20 04:40:39;;;;;;;1.00;0.40;;;6.90;41.30;;;;;;5073026;28;20165;-50
2022/01/20 04:43:05;;;;;;;1.30;0.30;;;6.80;41.70;;;;;;5072990;28;20198;-50
2022/01/20 04:45:37;;;;;;;1.00;0.30;;;6.80;41.80;;;;;;5072922;28;20164;-50
2022/01/20 04:48:18;;;;;;;1.75;0.55;;;6.80;41.70;;;;;;5072876;28;20188;-50
2022/01/20 04:58:56;;;;;;;1.00;0.50;;;6.80;41.80;;;;;;5072917;28;20203;-50
2022/01/20 05:01:22;;;;;;;1.33;0.47;;;6.80;41.80;;;;;;5076434;28;20169;-50
2022/01/20 05:03:47;;;;;;;1.00;0.30;;;6.80;41.50;;;;;;5076399;28;20165;-50
2022/01/20 05:06:13;;;;;;;1.63;0.67;;;6.90;41.60;;;;;;5076430;28;20559;-50
2022/01/20 05:08:39;;;;;;;1.20;0.70;;;6.90;40.80;;;;;;5076293;28;20220;-50
2022/01/20 05:11:05;;;;;;;1.00;0.20;;;6.80;41.00;;;;;;5076497;28;20169;-50
2022/01/20 05:13:37;;;;;;;1.00;0.30;;;7.00;41.00;;;;;;5076214;28;20173;-50
2022/01/20 05:16:04;;;;;;;1.00;0.30;;;7.10;40.60;;;;;;5076178;28;20291;-50
2022/01/20 05:18:30;;;;;;;1.00;0.50;;;7.10;40.00;;;;;;5076377;28;20176;-50
2022/01/20 05:20:56;;;;;;;2.05;0.85;;;6.90;40.40;;;;;;5075768;28;20216;-50
2022/01/20 05:23:22;;;;;;;1.00;0.30;;;6.90;41.00;;;;;;5075983;28;20199;-50
2022/01/20 05:25:47;;;;;;;1.20;0.50;;;6.90;40.40;;;;;;5076016;28;20176;-50
2022/01/20 05:28:13;;;;;;;1.00;0.30;;;7.00;40.60;;;;;;5075885;28;20192;-50
2022/01/20 05:30:40;;;;;;;1.53;0.70;;;7.00;40.50;;;;;;5076036;28;20419;-50
2022/01/20 05:33:06;;;;;;;1.52;0.90;;;7.00;40.60;;;;;;5075966;28;20624;-50
2022/01/20 05:35:32;;;;;;;1.73;0.60;;;7.00;40.60;;;;;;5075798;28;20165;-50
2022/01/20 05:37:58;;;;;;;1.37;0.50;;;6.80;41.90;;;;;;5075718;28;20161;-50
2022/01/20 05:40:24;;;;;;;1.00;0.40;;;6.80;41.70;;;;;;5075953;28;20825;-50
2022/01/20 05:42:50;;;;;;;2.60;0.60;;;6.60;42.50;;;;;;5075722;28;20172;-50
2022/01/20 05:45:16;;;;;;;1.10;0.47;;;6.60;42.90;;;;;;5075727;28;20407;-50
2022/01/20 05:47:47;;;;;;;1.00;0.40;;;6.70;43.80;;;;;;5075603;28;20675;-50
2022/01/20 05:50:20;;;;;;;1.67;0.85;;;6.60;43.50;;;;;;5075496;28;20164;-50
2022/01/20 05:52:46;;;;;;;1.10;0.43;;;6.60;44.50;;;;;;5075504;28;20601;-50
2022/01/20 05:55:18;;;;;;;1.10;0.50;;;6.60;43.70;;;;;;5075596;28;20171;-50
2022/01/20 05:57:45;;;;;;;0.90;0.20;;;6.60;44.00;;;;;;5075375;28;20172;-50
2022/01/20 06:00:19;;;;;;;1.65;0.40;;;6.70;44.30;;;;;;5075335;28;20285;-50
2022/01/20 06:05:31;;;;;;;1.67;0.98;;;6.70;43.80;;;;;;5075245;28;20222;-50
2022/01/20 06:07:57;;;;;;;1.00;0.30;;;6.80;43.40;;;;;;5075129;28;20193;-50
2022/01/20 06:10:22;;;;;;;0.90;0.20;;;6.70;43.50;;;;;;5074919;28;20238;-50
2022/01/20 06:12:48;;;;;;;1.37;0.50;;;6.90;43.40;;;;;;5074452;28;20173;-50
2022/01/20 06:15:14;;;;;;;1.10;0.50;;;6.70;43.60;;;;;;5074945;28;20581;-50
2022/01/20 06:17:41;;;;;;;3.90;2.20;;;6.80;43.90;;;;;;5075044;28;20161;-50
2022/01/20 06:20:08;;;;;;;1.00;0.30;;;6.80;44.00;;;;;;5075160;28;20208;-50
2022/01/20 06:22:35;;;;;;;9.25;1.80;;;6.90;44.50;;;;;;5074876;28;20686;-50
2022/01/20 06:25:02;;;;;;;1.00;0.38;;;6.90;45.20;;;;;;5074863;28;20202;-50
2022/01/20 06:27:28;;;;;;;1.58;0.52;;;6.90;45.20;;;;;;5075032;28;20560;-50
2022/01/20 06:29:53;;;;;;;1.57;0.50;;;6.90;45.40;;;;;;5074720;28;20187;-50
2022/01/20 06:32:19;;;;;;;1.13;0.50;;;6.90;45.80;;;;;;5074635;28;20407;-50
2022/01/20 06:34:46;;;;;;;0.93;0.20;;;6.90;46.60;;;;;;5074703;28;20678;-50
2022/01/20 06:37:12;;;;;;;1.30;0.93;;;7.80;47.50;;;;;;5074683;28;20418;-50
2022/01/20 06:39:38;;;;;;;5.47;1.00;;;6.70;47.50;;;;;;5073151;28;20246;-50
2022/01/20 06:42:04;;;;;;;1.20;0.40;;;6.70;48.40;;;;;;5074486;28;20629;-50
2022/01/20 06:44:30;;;;;;;2.10;1.30;;;6.40;49.60;;;;;;5074354;28;20195;-50
2022/01/20 06:46:56;;;;;;;1.30;0.60;;;6.30;50.20;;;;;;5072966;28;20209;-50
2022/01/20 06:49:21;;;;;;;1.00;0.40;;;6.40;50.00;;;;;;5074498;28;20179;-51
2022/01/20 06:51:47;;;;;;;1.10;0.50;;;6.50;49.40;;;;;;5074211;28;20234;-50
2022/01/20 06:54:14;;;;;;;2.70;0.80;;;6.70;48.60;;;;;;5074315;28;20171;-51
2022/01/20 06:56:42;;;;;;;11.85;0.88;;;6.90;48.10;;;;;;5074238;28;20472;-51
2022/01/20 06:59:13;;;;;;;2.17;0.60;;;7.00;47.70;;;;;;5074157;28;20204;-51
2022/01/20 07:01:41;;;;;;;2.72;0.95;;;7.10;47.80;;;;;;5074055;28;20172;-51
2022/01/20 07:04:09;;;;;;;5.07;1.02;;;7.10;48.00;;;;;;5074307;28;20180;-50
2022/01/20 07:06:35;;;;;;;1.05;0.47;;;7.10;48.00;;;;;;5074236;28;20208;-50
2022/01/20 07:09:01;;;;;;;1.08;0.40;;;7.00;48.20;;;;;;5072632;28;20609;-50
2022/01/20 07:11:27;;;;;;;1.00;0.40;;;7.00;48.10;;;;;;5073911;28;20169;-51
2022/01/20 07:13:52;;;;;;;3.67;0.70;;;7.50;48.80;;;;;;5072688;28;20914;-51
2022/01/20 07:16:18;;;;;;;12.97;1.03;;;7.10;48.10;;;;;;5072576;28;20271;-51
2022/01/20 07:18:44;;;;;;;1.40;0.90;;;7.10;48.60;;;;;;5073790;28;20172;-51
2022/01/20 07:21:09;;;;;;;2.60;0.90;;;7.00;49.00;;;;;;5073644;28;20222;-51
2022/01/20 07:23:35;;;;;;;1.83;0.90;;;7.00;49.10;;;;;;5073828;28;20599;-50
2022/01/20 07:26:01;;;;;;;1.30;0.40;;;6.90;49.00;;;;;;5073703;28;20165;-50
2022/01/20 07:28:27;;;;;;;3.23;0.60;;;7.00;48.70;;;;;;5073713;28;20563;-50
2022/01/20 07:30:52;;;;;;;2.80;0.50;;;6.80;47.00;;;;;;5073644;28;20176;-50
2022/01/20 07:33:20;;;;;;;1.77;0.57;;;6.50;47.20;;;;;;5073703;28;20594;-51
2022/01/20 07:35:46;;;;;;;2.88;0.60;;;6.20;47.20;;;;;;5073604;28;20539;-50
2022/01/20 07:38:12;;;;;;;0.90;0.20;;;6.10;47.10;;;;;;5073718;28;20174;-51
2022/01/20 07:40:38;;;;;;;2.80;0.40;;;5.90;47.00;;;;;;5073609;28;20422;-50
2022/01/20 07:43:04;;;;;;;1.00;0.30;;;5.90;47.30;;;;;;5073505;28;20172;-51
2022/01/20 07:45:30;;;;;;;1.20;0.50;;;5.80;46.90;;;;;;5073791;28;20809;-51
2022/01/20 07:47:55;;;;;;;1.07;0.30;;;5.70;47.00;;;;;;5072117;28;20193;-50
2022/01/20 07:50:21;;;;;;;1.30;0.63;;;5.50;47.00;;;;;;5073551;28;20168;-50
2022/01/20 07:52:47;;;;;;;1.00;0.30;;;5.40;47.30;;;;;;5072132;28;20255;-51
2022/01/20 07:55:14;;;;;;;1.00;0.40;;;5.40;47.70;;;;;;5073482;28;20415;-51
2022/01/20 07:57:40;;;;;;;1.00;0.30;;;5.40;47.60;;;;;;5073463;28;20407;-50
2022/01/20 08:00:07;;;;;;;1.00;0.20;;;5.50;47.30;;;;;;5073463;28;20161;-51
2022/01/20 08:02:33;;;;;;;0.90;0.20;;;5.60;47.10;;;;;;5072140;28;20165;-51
2022/01/20 08:04:59;;;;;;;1.00;0.30;;;5.70;46.80;;;;;;5073202;28;20172;-51
2022/01/20 08:07:25;;;;;;;0.90;0.20;;;5.60;46.20;;;;;;5073361;28;20191;-51
2022/01/20 08:09:57;;;;;;;2.70;0.57;;;5.70;46.30;;;;;;5073345;28;20530;-51
2022/01/20 08:12:24;;;;;;;1.33;0.40;;;5.70;45.90;;;;;;5073546;28;20399;-51
2022/01/20 08:14:49;;;;;;;1.00;0.40;;;5.70;45.70;;;;;;5073191;28;20180;-51
2022/01/20 08:17:15;;;;;;;2.00;0.53;;;5.70;45.60;;;;;;5073364;28;20168;-51
2022/01/20 08:19:41;;;;;;;1.00;0.30;;;5.70;45.60;;;;;;5072844;28;20240;-51
2022/01/20 08:22:07;;;;;;;1.52;0.57;;;5.80;45.40;;;;;;5072320;28;20220;-51
2022/01/20 08:24:33;;;;;;;1.10;0.43;;;5.80;45.30;;;;;;5073176;28;20173;-51
2022/01/20 08:27:00;;;;;;;2.07;0.40;;;5.90;44.90;;;;;;5073041;28;20407;-51
2022/01/20 08:29:25;;;;;;;1.00;0.40;;;5.80;44.80;;;;;;5073102;28;20501;-51
2022/01/20 08:31:51;;;;;;;2.60;0.43;;;5.90;45.00;;;;;;5073058;28;20194;-51
2022/01/20 08:34:17;;;;;;;1.10;0.40;;;6.20;45.20;;;;;;5073543;28;20254;-51
2022/01/20 08:36:44;;;;;;;3.20;0.67;;;5.90;45.00;;;;;;5077079;28;20430;-51
2022/01/20 08:41:55;;;;;;;0.93;0.25;;;5.80;44.80;;;;;;5077220;28;20307;-51
2022/01/20 08:44:21;;;;;;;1.50;0.30;;;5.90;44.90;;;;;;5075532;28;20252;-50
2022/01/20 08:46:47;;;;;;;1.97;0.30;;;5.80;45.10;;;;;;5076754;28;20650;-50
2022/01/20 08:49:13;;;;;;;1.20;0.40;;;5.90;44.60;;;;;;5076621;28;20195;-50
2022/01/20 08:51:40;;;;;;;1.13;0.40;;;5.80;44.50;;;;;;5076682;28;20172;-49
2022/01/20 08:54:06;;;;;;;1.20;0.30;;;5.80;44.90;;;;;;5076631;28;20193;-50
2022/01/20 08:56:35;;;;;;;1.10;0.30;;;5.80;44.50;;;;;;5076542;28;20173;-50
2022/01/20 08:59:03;;;;;;;1.75;0.28;;;5.90;44.00;;;;;;5076563;28;20179;-50
2022/01/20 09:01:29;;;;;;;1.00;0.30;;;5.90;42.90;;;;;;5076720;28;20189;-50
2022/01/20 09:03:54;;;;;;;1.00;0.40;;;5.80;42.80;;;;;;5075207;28;20582;-50
2022/01/20 09:06:20;;;;;;;1.00;0.30;;;6.10;43.00;;;;;;5076370;28;20898;-50
2022/01/20 09:08:47;;;;;;;7.43;0.87;;;6.80;42.40;;;;;;5076737;28;20220;-51
2022/01/20 09:11:22;;;;;;;2.30;0.68;;;7.30;40.60;;;;;;5076252;28;20427;-50
2022/01/20 09:16:33;;;;;;;1.55;0.65;;;8.10;37.80;;;;;;5076277;28;20198;-50
2022/01/20 09:18:59;;;;;;;1.58;0.60;;;8.40;36.90;;;;;;5076194;28;20644;-51
2022/01/20 09:21:26;;;;;;;1.00;0.40;;;8.30;37.00;;;;;;5074619;28;20224;-51
2022/01/20 09:23:52;;;;;;;1.30;0.38;;;8.10;36.10;;;;;;5076204;28;20172;-51
2022/01/20 09:26:18;;;;;;;1.00;0.30;;;8.00;37.10;;;;;;5076006;28;20218;-51
2022/01/20 09:28:44;;;;;;;1.50;0.75;;;7.80;37.40;;;;;;5076066;28;20188;-51
2022/01/20 09:31:10;;;;;;;5.20;0.83;;;7.70;37.40;;;;;;5076004;28;20627;-50
2022/01/20 09:33:36;;;;;;;1.20;0.60;;;7.50;38.00;;;;;;5075897;28;20662;-51
2022/01/20 09:36:13;;;;;;;1.00;0.30;;;7.50;38.70;;;;;;5076006;28;20200;-50
2022/01/20 09:38:39;;;;;;;1.00;0.30;;;7.40;37.50;;;;;;5076124;28;20394;-50
2022/01/20 09:41:06;;;;;;;1.00;0.30;;;7.20;37.30;;;;;;5075800;28;20536;-50
2022/01/20 09:43:33;;;;;;;8.68;0.88;;;7.10;37.40;;;;;;5075702;28;20187;-51
2022/01/20 09:45:59;;;;;;;1.52;0.70;;;7.00;37.30;;;;;;5072041;28;20192;-51
2022/01/20 09:48:27;;;;;;;1.48;0.50;;;6.80;37.70;;;;;;5075580;28;20203;-50
2022/01/20 09:50:53;;;;;;;0.95;0.30;;;6.90;38.30;;;;;;5075670;28;20643;-50
2022/01/20 09:53:19;;;;;;;1.00;0.30;;;6.90;38.40;;;;;;5075433;28;20544;-51
2022/01/20 09:55:45;;;;;;;3.80;0.83;;;6.60;36.60;;;;;;5074231;28;20180;-51
2022/01/20 09:58:12;;;;;;;1.00;0.30;;;6.60;38.10;;;;;;5075469;28;20414;-50
2022/01/20 10:00:42;;;;;;;1.05;0.52;;;7.00;38.40;;;;;;5074078;28;20176;-50
2022/01/20 10:03:12;;;;;;;2.40;1.20;;;6.70;37.30;;;;;;5075436;28;20248;-51
2022/01/20 10:05:42;;;;;;;1.20;0.38;;;6.70;37.70;;;;;;5075642;28;20275;-51
2022/01/20 10:08:21;;;;;;;1.10;0.43;;;6.80;37.00;;;;;;5075150;28;20177;-50
2022/01/20 10:11:00;;;;;;;2.35;0.40;;;6.70;36.00;;;;;;5075252;28;20157;-50
2022/01/20 10:13:38;;;;;;;1.00;0.30;;;6.60;37.40;;;;;;5073896;28;20263;-50
2022/01/20 10:16:12;;;;;;;1.13;0.55;;;6.70;38.00;;;;;;5075419;28;20222;-50
2022/01/20 10:18:50;;;;;;;5.22;1.23;;;6.80;37.00;;;;;;5075006;28;20165;-50
2022/01/20 10:21:17;;;;;;;1.00;0.40;;;7.00;37.50;;;;;;5074928;28;20223;-51
2022/01/20 10:23:44;;;;;;;1.30;0.52;;;7.10;36.70;;;;;;5074853;28;20248;-50
2022/01/20 10:26:14;;;;;;;1.00;0.30;;;7.30;36.90;;;;;;5075067;28;20168;-51
2022/01/20 10:28:57;;;;;;;1.50;0.65;;;7.60;35.40;;;;;;5074995;28;20200;-50
2022/01/20 10:31:39;;;;;;;3.47;0.60;;;8.10;34.50;;;;;;5074770;28;20154;-51
2022/01/20 10:34:16;;;;;;;1.58;1.33;;;9.00;34.70;;;;;;5074842;28;20172;-51
2022/01/20 10:36:54;;;;;;;1.23;0.50;;;9.20;33.10;;;;;;5074662;28;20155;-50
2022/01/20 10:39:42;;;;;;;1.00;0.30;;;9.40;32.50;;;;;;5073529;28;20173;-51
2022/01/20 10:42:25;;;;;;;1.20;0.70;;;9.60;32.50;;;;;;5074652;28;20159;-50
2022/01/20 10:44:56;;;;;;;1.10;0.40;;;9.50;32.10;;;;;;5074669;28;20157;-50
2022/01/20 10:47:28;;;;;;;1.20;0.68;;;9.50;31.80;;;;;;5073234;28;20601;-50
2022/01/20 10:49:55;;;;;;;1.77;0.70;;;9.40;31.70;;;;;;5074422;28;20220;-50
2022/01/20 10:52:24;;;;;;;1.00;0.22;;;9.40;31.10;;;;;;5074440;28;20178;-51
2022/01/20 10:54:54;;;;;;;1.40;0.65;;;9.20;32.20;;;;;;5074493;28;20186;-50
2022/01/20 10:57:31;;;;;;;7.03;1.33;;;9.00;32.10;;;;;;5072505;28;20537;-50
2022/01/20 11:00:00;;;;;;;2.17;0.40;;;8.80;32.80;;;;;;5074413;28;20176;-50
2022/01/20 11:02:29;;;;;;;1.52;0.50;;;8.50;33.20;;;;;;5074129;28;20528;-50
2022/01/20 11:04:56;;;;;;;1.10;0.30;;;8.20;32.40;;;;;;5074099;28;20219;-50
2022/01/20 11:07:22;;;;;;;1.00;0.30;;;8.00;34.20;;;;;;5074059;28;20175;-50
2022/01/20 11:09:55;;;;;;;1.30;0.60;;;7.90;33.70;;;;;;5074247;28;20207;-50
2022/01/20 11:12:21;;;;;;;1.00;0.20;;;7.70;34.10;;;;;;5073923;28;20157;-50
2022/01/20 11:14:49;;;;;;;0.97;0.30;;;7.40;33.00;;;;;;5073903;28;20222;-50
2022/01/20 11:17:26;;;;;;;1.40;0.30;;;7.20;34.40;;;;;;5073837;28;20177;-50
2022/01/20 11:19:55;;;;;;;4.03;1.15;;;7.10;34.10;;;;;;5073816;28;20157;-50
2022/01/20 11:22:21;;;;;;;1.10;0.50;;;7.00;34.70;;;;;;5073976;28;20218;-50
2022/01/20 11:24:58;;;;;;;1.33;0.37;;;7.00;34.90;;;;;;5072526;28;20181;-51
2022/01/20 11:27:37;;;;;;;1.00;0.30;;;7.10;35.30;;;;;;5073650;28;20478;-50
2022/01/20 11:30:21;;;;;;;1.13;0.30;;;7.00;34.20;;;;;;5073950;28;20202;-55
2022/01/20 11:33:11;;;;;;;0.95;0.30;;;6.80;35.30;;;;;;5073687;28;20152;-50
2022/01/20 11:35:49;;;;;;;1.00;0.35;;;6.80;35.70;;;;;;5073722;28;20188;-50
2022/01/20 11:38:21;;;;;;;1.00;0.30;;;6.80;35.50;;;;;;5073843;28;20521;-50
2022/01/20 11:40:49;;;;;;;1.75;0.63;;;6.80;35.70;;;;;;5073825;28;20172;-50
2022/01/20 11:43:15;;;;;;;0.90;0.20;;;6.80;35.30;;;;;;5073532;28;20169;-50
2022/01/20 11:45:51;;;;;;;3.10;0.60;;;6.80;34.90;;;;;;5073568;28;20172;-50
2022/01/20 11:48:22;;;;;;;1.30;0.60;;;6.80;35.70;;;;;;5073563;28;20472;-50
2022/01/20 11:51:04;;;;;;;1.58;0.60;;;6.80;34.90;;;;;;5073454;28;20173;-50
2022/01/20 11:53:30;;;;;;;1.20;0.65;;;6.70;35.20;;;;;;5073766;28;20206;-50
2022/01/20 11:55:56;;;;;;;2.37;1.70;;;6.70;35.80;;;;;;5073492;28;20173;-50
2022/01/20 11:58:24;;;;;;;1.40;0.40;;;6.70;34.50;;;;;;5073381;28;20171;-50
2022/01/20 12:01:04;;;;;;;1.65;0.75;;;6.50;34.40;;;;;;5073616;28;20216;-50
2022/01/20 12:03:31;;;;;;;1.00;0.40;;;6.50;35.30;;;;;;5073548;28;20243;-50
2022/01/20 12:06:10;;;;;;;1.00;0.40;;;6.60;35.40;;;;;;5073548;28;20176;-50
2022/01/20 12:08:36;;;;;;;2.55;0.40;;;6.70;34.70;;;;;;5071946;28;20200;-50
2022/01/20 12:11:07;;;;;;;0.97;0.30;;;6.70;34.80;;;;;;5075690;28;20586;-49
2022/01/20 12:13:44;;;;;;;1.50;0.70;;;6.70;35.00;;;;;;5077426;28;20411;-50
2022/01/20 12:16:10;;;;;;;5.57;0.77;;;6.80;34.70;;;;;;5077528;28;20235;-50
2022/01/20 12:18:36;;;;;;;1.17;0.50;;;6.80;34.70;;;;;;5077243;28;20675;-50
2022/01/20 12:21:05;;;;;;;1.10;0.50;;;7.40;35.20;;;;;;5077185;28;20226;-50
2022/01/20 12:23:40;;;;;;;1.42;0.75;;;6.70;34.20;;;;;;5077184;28;20259;-50
2022/01/20 12:26:06;;;;;;;1.92;0.65;;;6.80;34.90;;;;;;5077333;28;20163;-50
2022/01/20 12:28:31;;;;;;;0.93;0.33;;;6.90;34.30;;;;;;5077042;28;20181;-50
2022/01/20 12:31:02;;;;;;;0.90;0.27;;;7.00;34.70;;;;;;5077147;28;20229;-50
2022/01/20 12:33:31;;;;;;;1.00;0.30;;;6.90;34.00;;;;;;5075726;28;20628;-50
2022/01/20 12:36:03;;;;;;;11.13;1.52;;;6.90;34.20;;;;;;5076964;28;20218;-50
2022/01/20 12:38:32;;;;;;;3.20;0.52;;;6.90;34.40;;;;;;5077185;28;20175;-50
2022/01/20 12:41:17;;;;;;;2.10;0.95;;;6.90;34.70;;;;;;5076907;28;20192;-50
2022/01/20 12:44:04;;;;;;;1.00;0.40;;;7.00;34.20;;;;;;5076808;28;20210;-50
2022/01/20 12:46:36;;;;;;;1.00;0.30;;;6.80;33.80;;;;;;5077025;28;20184;-50
2022/01/20 12:49:12;;;;;;;1.67;1.15;;;6.70;34.10;;;;;;5076714;28;20692;-50
2022/01/20 12:51:41;;;;;;;0.98;0.30;;;6.60;34.00;;;;;;5076804;28;20248;-50
2022/01/20 12:54:16;;;;;;;1.00;0.40;;;6.60;34.80;;;;;;5076605;28;20694;-50
2022/01/20 12:56:44;;;;;;;1.20;0.70;;;6.70;34.80;;;;;;5076843;28;20243;-50
2022/01/20 12:59:16;;;;;;;1.52;0.45;;;6.90;35.00;;;;;;5076774;28;20559;-50
2022/01/20 13:01:46;;;;;;;1.83;0.52;;;7.00;34.80;;;;;;5075257;28;20165;-50
2022/01/20 13:04:15;;;;;;;0.98;0.30;;;7.20;34.80;;;;;;5076547;28;20240;-50
2022/01/20 13:06:51;;;;;;;1.88;0.60;;;7.20;34.40;;;;;;5076656;28;20173;-50
2022/01/20 13:09:18;;;;;;;4.30;0.98;;;7.20;33.60;;;;;;5076289;28;20192;-50
2022/01/20 13:11:57;;;;;;;1.00;0.40;;;8.10;34.50;;;;;;5076314;28;20264;-50
2022/01/20 13:14:47;;;;;;;1.38;0.52;;;7.60;32.90;;;;;;5076358;28;20251;-50
2022/01/20 13:17:25;;;;;;;5.07;1.30;;;7.60;32.20;;;;;;5076247;28;20157;-50
2022/01/20 13:19:54;;;;;;;1.05;0.50;;;7.50;32.80;;;;;;5075942;28;20619;-50
2022/01/20 13:22:24;;;;;;;1.15;0.65;;;7.50;32.10;;;;;;5076197;28;20161;-50
2022/01/20 13:24:49;;;;;;;1.05;0.40;;;7.80;32.50;;;;;;5075997;28;20176;-50
2022/01/20 13:27:16;;;;;;;4.60;0.50;;;7.80;31.20;;;;;;5076032;28;20509;-50
2022/01/20 13:29:47;;;;;;;1.73;0.75;;;7.60;31.40;;;;;;5075902;28;20422;-50
2022/01/20 13:32:14;;;;;;;2.58;0.30;;;7.40;31.60;;;;;;5076091;28;20191;-50
2022/01/20 13:34:50;;;;;;;1.00;0.38;;;7.20;31.70;;;;;;5075940;28;20178;-50
2022/01/20 13:37:16;;;;;;;3.67;1.25;;;7.10;32.40;;;;;;5075985;28;20631;-50
2022/01/20 13:39:44;;;;;;;4.47;1.80;;;7.10;33.10;;;;;;5075757;28;20161;-50
2022/01/20 13:45:13;;;;;;;1.98;0.60;;;7.00;32.70;;;;;;5075982;28;20173;-50
2022/01/20 13:47:58;;;;;;;1.20;0.60;;;6.70;32.90;;;;;;5075608;28;20195;-50
2022/01/20 13:50:31;;;;;;;3.85;0.60;;;6.70;33.40;;;;;;5075663;28;20213;-50
2022/01/20 13:52:59;;;;;;;1.40;0.52;;;6.90;33.20;;;;;;5075580;28;20626;-50
2022/01/20 13:55:35;;;;;;;1.65;0.68;;;7.00;32.80;;;;;;5075511;28;20173;-50
2022/01/20 13:58:02;;;;;;;1.35;0.68;;;7.20;32.20;;;;;;5074355;28;20156;-50
2022/01/20 14:00:31;;;;;;;1.63;0.82;;;7.30;32.40;;;;;;5075490;28;20179;-50
2022/01/20 14:02:56;;;;;;;1.00;0.43;;;7.20;32.40;;;;;;5075357;28;20165;-50
2022/01/20 14:05:28;;;;;;;1.37;0.80;;;7.30;32.30;;;;;;5075383;28;20176;-50
2022/01/20 14:07:54;;;;;;;1.00;0.30;;;7.20;31.70;;;;;;5075251;28;20189;-50
2022/01/20 14:10:20;;;;;;;1.10;0.40;;;7.20;32.00;;;;;;5073918;28;20184;-50
2022/01/20 14:12:46;;;;;;;2.27;0.60;;;7.10;32.10;;;;;;5074946;28;20980;-50
2022/01/20 14:15:12;;;;;;;3.83;0.73;;;7.00;32.10;;;;;;5075206;28;20418;-50
2022/01/20 14:17:39;;;;;;;1.30;0.57;;;6.70;32.80;;;;;;5074944;28;20583;-50
2022/01/20 14:20:11;;;;;;;1.00;0.40;;;6.60;33.50;;;;;;5074744;28;20616;-50